Cytokinetics Inc (CYTK)

Market is closed
Insider Trading: Sales
Insider Price Amount Total Value Remaining Holdings Date Form 4
$45.14 20,900 $943,426.00 37,663 2025-03-17 Filing
$45.00 100 $4,500.00 37,663 2025-03-14 Filing
$43.62 26,771 $1,167,751.02 37,663 2025-03-13 Filing
$43.27 3,341 $144,565.07 64,434 2025-03-06 Filing
$43.27 8,228 $356,025.56 105,394 2025-03-06 Filing
$43.44 16,970 $737,176.80 364,181 2025-03-06 Filing
$43.23 25,000 $1,080,750.00 381,151 2025-03-05 Filing
$42.88 2,449 $105,013.12 113,622 2025-03-03 Filing
$42.88 1,114 $47,768.32 67,775 2025-03-03 Filing
$42.88 8,743 $374,899.84 406,151 2025-03-03 Filing
$42.50 2,000 $85,000.00 116,071 2025-03-04 Filing
$42.50 900 $38,250.00 15,108 2025-03-04 Filing
$45.98 2,000 $91,960.00 116,071 2025-02-18 Filing
$48.06 2,000 $96,120.00 116,071 2025-02-04 Filing
$45.92 2,000 $91,840.00 116,071 2025-01-21 Filing
$49.32 2,000 $98,640.00 116,071 2025-01-07 Filing
$48.61 742 $36,068.62 24,559 2024-12-16 Filing
$50.42 1,780 $89,747.60 38,461 2024-12-11 Filing
$50.65 2,000 $101,300.00 116,071 2024-12-10 Filing
$50.63 5,300 $268,339.00 118,071 2024-12-10 Filing